Helena Regional Airport
KHLN : rendu visible

Aérodrome :











RETROUVEZ-NOUS SUR...

 
LOGIN :

S'inscrire | Disclaimer

   EN    FR    IT 

 









Légende :    VFR   VFR Marginal   IFR   IFR Intensif   IFR Très Intensif
Visi : 
Plafond : 
>= 8 km
>= 3000ft
5 à 8 km
1000 à 3000 ft
1500m à 5 km
500 à 1000 ft
800 à 1500m
200 à 500 ft
< 800m
< 200 ft
Symboles :   Orages  Brouillard  Fortes neiges  Fortes précipitations  Vent > 20 kt






- Altitude de l'aérodrome : 3877 ft
- Code IATA : HLN


KHLN - Helena Regional

DERNIER METAR :
  • 250053Z AUTO 27007KT 10SM BKN120 17/00 A3007 RMK AO2 SLP191 T01670000

METARs EXPIRÉS :
  • 242353Z AUTO 29014KT 10SM BKN110 18/01 A3007 RMK AO2 SLP188 T01780011 10200 20144 53001
  • 242253Z AUTO 27010KT 10SM OVC110 18/M01 A3006 RMK AO2 SLP186 T01781006

TAF KHLN
Valide du 25 à 00h jusqu'au 26 à 00h UTC


242335Z 2500/2524 29011G18KT P6SM SCT060 BKN090
FM250300 27008KT P6SM FEW090 SCT250
FM252000 28010G22KT P6SM SCT120 BKN200
FM252300 28011KT P6SM VCSH SCT080 BKN120
FIR KZLC / Amérique du Nord



MET'MAP, la Météo Aéronautique d'un coup d'oeil ! - Copyright ORBIFLY Décembre 2007 - Disclaimer

ORBIFLY MET'MAP TEAM :

Programmation & Développement : Alexandra Zaïnal
Sur une idée originale de : Baudouin d'Aumeries
Assistance à la programmation : Marc-Olivier Méhu
Soutien technique & logistique : Manuel Goepfert

Contact : metmap@orbifly.com




SOURCES & CREDITS :

   NOAA       Earth
Advisory